Southport, North Carolina
Current Conditions -  °F | °C
As of 11:55 AM on Monday 22 Dec 2014 (Local Time) from KSUT Reporting Station
Overcast Overcast  
Wind Chill: 42°   Ceiling: 600
Heat Index: 46°   Visibility: 10mi
Dew Point: 44°   Wind: 9mph
Humidity: 92%   Direction: 350°N
Pressure: 30.03"   Gusts: NA
Location:  33.92°N, 78.02°W
Report Text: KSUT 221655Z AUTO 35008KT 10SM OVC006 08/07 A3003 RMK AO2 T00790067
Loading
Personal Weather Stations






























Interactive Weather Map New forecast layout! Learn more

10-Day Weather Forecast

Advertisements
Track Severe Weather on mobile